sensor_id;sensor_type;location;lat;lon;timestamp;P1;durP1;ratioP1;P2;durP2;ratioP2
51981;SDS011;37998;53.416;6.730;2022-07-23T00:00:33;5.35;;;2.90;;
51981;SDS011;37998;53.416;6.730;2022-07-23T00:02:59;5.70;;;2.85;;
51981;SDS011;37998;53.416;6.730;2022-07-23T00:05:24;6.03;;;2.60;;
51981;SDS011;37998;53.416;6.730;2022-07-23T00:07:50;6.93;;;2.88;;
51981;SDS011;37998;53.416;6.730;2022-07-23T00:10:16;5.68;;;2.53;;
51981;SDS011;37998;53.416;6.730;2022-07-23T00:12:41;5.35;;;2.10;;
51981;SDS011;37998;53.416;6.730;2022-07-23T00:15:07;3.30;;;1.60;;
51981;SDS011;37998;53.416;6.730;2022-07-23T00:17:33;3.88;;;2.47;;
51981;SDS011;37998;53.416;6.730;2022-07-23T00:19:59;4.15;;;2.70;;
51981;SDS011;37998;53.416;6.730;2022-07-23T00:22:25;4.68;;;3.13;;
51981;SDS011;37998;53.416;6.730;2022-07-23T00:24:51;6.30;;;2.95;;
51981;SDS011;37998;53.416;6.730;2022-07-23T00:27:16;5.30;;;2.28;;
51981;SDS011;37998;53.416;6.730;2022-07-23T00:29:42;3.40;;;1.98;;
51981;SDS011;37998;53.416;6.730;2022-07-23T00:32:08;3.38;;;1.90;;
51981;SDS011;37998;53.416;6.730;2022-07-23T00:34:33;4.20;;;2.25;;
51981;SDS011;37998;53.416;6.730;2022-07-23T00:36:59;6.63;;;2.50;;
51981;SDS011;37998;53.416;6.730;2022-07-23T00:39:25;6.03;;;2.42;;
51981;SDS011;37998;53.416;6.730;2022-07-23T00:41:51;5.13;;;2.83;;
51981;SDS011;37998;53.416;6.730;2022-07-23T00:44:21;6.32;;;3.00;;
51981;SDS011;37998;53.416;6.730;2022-07-23T00:46:52;3.88;;;2.25;;
51981;SDS011;37998;53.416;6.730;2022-07-23T00:49:23;5.72;;;2.22;;
51981;SDS011;37998;53.416;6.730;2022-07-23T00:51:50;6.20;;;2.53;;
51981;SDS011;37998;53.416;6.730;2022-07-23T00:54:17;4.07;;;1.65;;
51981;SDS011;37998;53.416;6.730;2022-07-23T00:56:43;1.83;;;1.70;;
51981;SDS011;37998;53.416;6.730;2022-07-23T00:59:10;2.15;;;1.70;;
51981;SDS011;37998;53.416;6.730;2022-07-23T01:01:36;3.30;;;1.70;;
51981;SDS011;37998;53.416;6.730;2022-07-23T01:04:02;2.10;;;1.50;;
51981;SDS011;37998;53.416;6.730;2022-07-23T01:06:28;4.82;;;1.75;;
51981;SDS011;37998;53.416;6.730;2022-07-23T01:08:54;2.58;;;1.38;;
51981;SDS011;37998;53.416;6.730;2022-07-23T01:11:20;3.72;;;1.30;;
51981;SDS011;37998;53.416;6.730;2022-07-23T01:13:48;2.58;;;1.45;;
51981;SDS011;37998;53.416;6.730;2022-07-23T01:16:14;1.48;;;1.20;;
51981;SDS011;37998;53.416;6.730;2022-07-23T01:18:40;3.78;;;1.77;;
51981;SDS011;37998;53.416;6.730;2022-07-23T01:21:06;3.58;;;1.65;;
51981;SDS011;37998;53.416;6.730;2022-07-23T01:23:34;2.80;;;1.98;;
51981;SDS011;37998;53.416;6.730;2022-07-23T01:25:59;4.40;;;2.30;;
51981;SDS011;37998;53.416;6.730;2022-07-23T01:28:25;2.63;;;2.40;;
51981;SDS011;37998;53.416;6.730;2022-07-23T01:30:51;6.63;;;2.65;;
51981;SDS011;37998;53.416;6.730;2022-07-23T01:33:16;6.50;;;3.00;;
51981;SDS011;37998;53.416;6.730;2022-07-23T01:35:42;5.00;;;3.15;;
51981;SDS011;37998;53.416;6.730;2022-07-23T01:38:08;7.32;;;3.25;;
51981;SDS011;37998;53.416;6.730;2022-07-23T01:40:33;5.35;;;2.97;;
51981;SDS011;37998;53.416;6.730;2022-07-23T01:42:59;3.75;;;2.80;;
51981;SDS011;37998;53.416;6.730;2022-07-23T01:45:24;7.88;;;3.85;;
51981;SDS011;37998;53.416;6.730;2022-07-23T01:47:50;7.18;;;3.97;;
51981;SDS011;37998;53.416;6.730;2022-07-23T01:50:16;6.68;;;3.70;;
51981;SDS011;37998;53.416;6.730;2022-07-23T01:52:42;6.47;;;4.40;;
51981;SDS011;37998;53.416;6.730;2022-07-23T01:55:07;10.60;;;4.15;;
51981;SDS011;37998;53.416;6.730;2022-07-23T01:57:33;5.80;;;4.25;;
51981;SDS011;37998;53.416;6.730;2022-07-23T01:59:59;6.50;;;3.75;;
51981;SDS011;37998;53.416;6.730;2022-07-23T02:02:25;8.18;;;4.07;;
51981;SDS011;37998;53.416;6.730;2022-07-23T02:04:50;8.40;;;4.38;;
51981;SDS011;37998;53.416;6.730;2022-07-23T02:07:16;7.95;;;4.45;;
51981;SDS011;37998;53.416;6.730;2022-07-23T02:09:42;5.57;;;4.13;;
51981;SDS011;37998;53.416;6.730;2022-07-23T02:12:07;5.32;;;4.50;;
51981;SDS011;37998;53.416;6.730;2022-07-23T02:14:33;6.50;;;4.03;;
51981;SDS011;37998;53.416;6.730;2022-07-23T02:16:59;5.35;;;4.03;;
51981;SDS011;37998;53.416;6.730;2022-07-23T02:19:24;4.75;;;3.80;;
51981;SDS011;37998;53.416;6.730;2022-07-23T02:21:50;13.38;;;4.05;;
51981;SDS011;37998;53.416;6.730;2022-07-23T02:24:16;7.38;;;4.35;;
51981;SDS011;37998;53.416;6.730;2022-07-23T02:26:42;6.72;;;3.97;;
51981;SDS011;37998;53.416;6.730;2022-07-23T02:29:07;5.35;;;4.05;;
51981;SDS011;37998;53.416;6.730;2022-07-23T02:31:33;8.02;;;4.20;;
51981;SDS011;37998;53.416;6.730;2022-07-23T02:33:59;7.43;;;4.75;;
51981;SDS011;37998;53.416;6.730;2022-07-23T02:36:26;8.65;;;4.90;;
51981;SDS011;37998;53.416;6.730;2022-07-23T02:38:52;7.10;;;5.07;;
51981;SDS011;37998;53.416;6.730;2022-07-23T02:41:18;7.13;;;5.28;;
51981;SDS011;37998;53.416;6.730;2022-07-23T02:43:43;7.05;;;5.50;;
51981;SDS011;37998;53.416;6.730;2022-07-23T02:46:09;6.95;;;5.85;;
51981;SDS011;37998;53.416;6.730;2022-07-23T02:48:35;6.43;;;5.00;;
51981;SDS011;37998;53.416;6.730;2022-07-23T02:51:00;7.95;;;5.53;;
51981;SDS011;37998;53.416;6.730;2022-07-23T02:53:26;10.75;;;5.90;;
51981;SDS011;37998;53.416;6.730;2022-07-23T02:55:52;11.20;;;5.07;;
51981;SDS011;37998;53.416;6.730;2022-07-23T02:58:17;6.35;;;5.07;;
51981;SDS011;37998;53.416;6.730;2022-07-23T03:00:43;9.15;;;5.50;;
51981;SDS011;37998;53.416;6.730;2022-07-23T03:03:09;6.72;;;4.90;;
51981;SDS011;37998;53.416;6.730;2022-07-23T03:05:34;9.35;;;4.97;;
51981;SDS011;37998;53.416;6.730;2022-07-23T03:08:00;7.10;;;5.38;;
51981;SDS011;37998;53.416;6.730;2022-07-23T03:10:26;7.88;;;5.10;;
51981;SDS011;37998;53.416;6.730;2022-07-23T03:12:52;9.45;;;5.03;;
51981;SDS011;37998;53.416;6.730;2022-07-23T03:15:18;8.07;;;4.68;;
51981;SDS011;37998;53.416;6.730;2022-07-23T03:17:43;5.78;;;4.30;;
51981;SDS011;37998;53.416;6.730;2022-07-23T03:20:09;7.95;;;4.20;;
51981;SDS011;37998;53.416;6.730;2022-07-23T03:22:35;5.28;;;4.75;;
51981;SDS011;37998;53.416;6.730;2022-07-23T03:25:01;5.28;;;4.40;;
51981;SDS011;37998;53.416;6.730;2022-07-23T03:27:28;8.32;;;4.63;;
51981;SDS011;37998;53.416;6.730;2022-07-23T03:29:55;4.72;;;3.90;;
51981;SDS011;37998;53.416;6.730;2022-07-23T03:32:22;7.80;;;4.10;;
51981;SDS011;37998;53.416;6.730;2022-07-23T03:34:48;6.20;;;3.85;;
51981;SDS011;37998;53.416;6.730;2022-07-23T03:37:15;8.35;;;4.10;;
51981;SDS011;37998;53.416;6.730;2022-07-23T03:39:41;4.63;;;3.63;;
51981;SDS011;37998;53.416;6.730;2022-07-23T03:42:07;7.75;;;4.18;;
51981;SDS011;37998;53.416;6.730;2022-07-23T03:44:33;8.75;;;5.00;;
51981;SDS011;37998;53.416;6.730;2022-07-23T03:46:58;7.78;;;4.72;;
51981;SDS011;37998;53.416;6.730;2022-07-23T03:49:24;5.38;;;4.07;;
51981;SDS011;37998;53.416;6.730;2022-07-23T03:51:50;8.68;;;4.38;;
51981;SDS011;37998;53.416;6.730;2022-07-23T03:54:16;7.90;;;5.05;;
51981;SDS011;37998;53.416;6.730;2022-07-23T03:56:42;4.53;;;3.60;;
51981;SDS011;37998;53.416;6.730;2022-07-23T03:59:08;4.45;;;3.65;;
51981;SDS011;37998;53.416;6.730;2022-07-23T04:01:34;5.78;;;3.70;;
51981;SDS011;37998;53.416;6.730;2022-07-23T04:04:00;7.50;;;3.80;;
51981;SDS011;37998;53.416;6.730;2022-07-23T04:06:26;3.78;;;2.90;;
51981;SDS011;37998;53.416;6.730;2022-07-23T04:08:51;7.90;;;3.53;;
51981;SDS011;37998;53.416;6.730;2022-07-23T04:11:17;4.03;;;3.00;;
51981;SDS011;37998;53.416;6.730;2022-07-23T04:13:43;5.40;;;3.03;;
51981;SDS011;37998;53.416;6.730;2022-07-23T04:16:08;5.65;;;3.25;;
51981;SDS011;37998;53.416;6.730;2022-07-23T04:18:34;5.70;;;3.70;;
51981;SDS011;37998;53.416;6.730;2022-07-23T04:21:00;6.03;;;3.20;;
51981;SDS011;37998;53.416;6.730;2022-07-23T04:23:26;7.43;;;3.63;;
51981;SDS011;37998;53.416;6.730;2022-07-23T04:25:51;7.00;;;3.50;;
51981;SDS011;37998;53.416;6.730;2022-07-23T04:28:17;4.78;;;3.25;;
51981;SDS011;37998;53.416;6.730;2022-07-23T04:30:43;6.70;;;3.35;;
51981;SDS011;37998;53.416;6.730;2022-07-23T04:33:08;6.43;;;3.63;;
51981;SDS011;37998;53.416;6.730;2022-07-23T04:35:34;3.92;;;3.47;;
51981;SDS011;37998;53.416;6.730;2022-07-23T04:38:01;6.32;;;3.35;;
51981;SDS011;37998;53.416;6.730;2022-07-23T04:40:28;4.88;;;3.33;;
51981;SDS011;37998;53.416;6.730;2022-07-23T04:42:53;4.70;;;3.40;;
51981;SDS011;37998;53.416;6.730;2022-07-23T04:45:19;5.30;;;3.55;;
51981;SDS011;37998;53.416;6.730;2022-07-23T04:47:45;4.45;;;3.35;;
51981;SDS011;37998;53.416;6.730;2022-07-23T04:50:11;6.45;;;3.15;;
51981;SDS011;37998;53.416;6.730;2022-07-23T04:52:36;4.70;;;2.50;;
51981;SDS011;37998;53.416;6.730;2022-07-23T04:55:03;3.90;;;2.88;;
51981;SDS011;37998;53.416;6.730;2022-07-23T04:57:29;5.18;;;2.65;;
51981;SDS011;37998;53.416;6.730;2022-07-23T04:59:55;15.25;;;2.72;;
51981;SDS011;37998;53.416;6.730;2022-07-23T05:02:21;3.75;;;2.10;;
51981;SDS011;37998;53.416;6.730;2022-07-23T05:04:46;4.45;;;2.70;;
51981;SDS011;37998;53.416;6.730;2022-07-23T05:07:12;5.90;;;2.40;;
51981;SDS011;37998;53.416;6.730;2022-07-23T05:09:38;6.03;;;1.95;;
51981;SDS011;37998;53.416;6.730;2022-07-23T05:12:04;2.42;;;1.50;;
51981;SDS011;37998;53.416;6.730;2022-07-23T05:14:29;6.28;;;1.95;;
51981;SDS011;37998;53.416;6.730;2022-07-23T05:16:55;5.28;;;1.60;;
51981;SDS011;37998;53.416;6.730;2022-07-23T05:19:21;4.30;;;1.92;;
51981;SDS011;37998;53.416;6.730;2022-07-23T05:21:46;3.60;;;2.28;;
51981;SDS011;37998;53.416;6.730;2022-07-23T05:24:12;4.32;;;2.28;;
51981;SDS011;37998;53.416;6.730;2022-07-23T05:26:38;6.22;;;2.45;;
51981;SDS011;37998;53.416;6.730;2022-07-23T05:29:03;3.42;;;2.08;;
51981;SDS011;37998;53.416;6.730;2022-07-23T05:31:29;4.28;;;2.10;;
51981;SDS011;37998;53.416;6.730;2022-07-23T05:33:54;3.10;;;2.10;;
51981;SDS011;37998;53.416;6.730;2022-07-23T05:36:20;3.58;;;2.28;;
51981;SDS011;37998;53.416;6.730;2022-07-23T05:38:46;5.72;;;2.00;;
51981;SDS011;37998;53.416;6.730;2022-07-23T05:41:11;4.13;;;2.38;;
51981;SDS011;37998;53.416;6.730;2022-07-23T05:43:37;3.78;;;2.50;;
51981;SDS011;37998;53.416;6.730;2022-07-23T05:46:03;3.53;;;2.10;;
51981;SDS011;37998;53.416;6.730;2022-07-23T05:48:28;6.10;;;2.00;;
51981;SDS011;37998;53.416;6.730;2022-07-23T05:50:54;2.60;;;1.58;;
51981;SDS011;37998;53.416;6.730;2022-07-23T05:53:20;4.00;;;1.70;;
51981;SDS011;37998;53.416;6.730;2022-07-23T05:55:45;1.60;;;1.40;;
51981;SDS011;37998;53.416;6.730;2022-07-23T05:58:11;2.65;;;1.70;;
51981;SDS011;37998;53.416;6.730;2022-07-23T06:00:37;2.33;;;1.40;;
51981;SDS011;37998;53.416;6.730;2022-07-23T06:03:02;3.83;;;1.42;;
51981;SDS011;37998;53.416;6.730;2022-07-23T06:05:28;2.25;;;1.67;;
51981;SDS011;37998;53.416;6.730;2022-07-23T06:07:54;4.22;;;1.60;;
51981;SDS011;37998;53.416;6.730;2022-07-23T06:10:19;3.55;;;1.40;;
51981;SDS011;37998;53.416;6.730;2022-07-23T06:12:45;2.13;;;1.20;;
51981;SDS011;37998;53.416;6.730;2022-07-23T06:15:11;1.30;;;1.13;;
51981;SDS011;37998;53.416;6.730;2022-07-23T06:17:37;3.90;;;1.20;;
51981;SDS011;37998;53.416;6.730;2022-07-23T06:20:07;1.73;;;0.80;;
51981;SDS011;37998;53.416;6.730;2022-07-23T06:22:34;0.57;;;0.57;;
51981;SDS011;37998;53.416;6.730;2022-07-23T06:25:00;2.38;;;0.70;;
51981;SDS011;37998;53.416;6.730;2022-07-23T06:27:26;4.75;;;0.98;;
51981;SDS011;37998;53.416;6.730;2022-07-23T06:29:52;3.33;;;0.93;;
51981;SDS011;37998;53.416;6.730;2022-07-23T06:32:17;2.47;;;0.75;;
51981;SDS011;37998;53.416;6.730;2022-07-23T06:34:43;1.33;;;0.82;;
51981;SDS011;37998;53.416;6.730;2022-07-23T06:37:09;2.92;;;0.90;;
51981;SDS011;37998;53.416;6.730;2022-07-23T06:39:34;3.97;;;0.90;;
51981;SDS011;37998;53.416;6.730;2022-07-23T06:42:00;1.27;;;0.80;;
51981;SDS011;37998;53.416;6.730;2022-07-23T06:44:26;5.40;;;1.00;;
51981;SDS011;37998;53.416;6.730;2022-07-23T06:46:52;1.23;;;0.80;;
51981;SDS011;37998;53.416;6.730;2022-07-23T06:49:18;3.15;;;1.00;;
51981;SDS011;37998;53.416;6.730;2022-07-23T06:51:44;2.38;;;0.93;;
51981;SDS011;37998;53.416;6.730;2022-07-23T06:54:10;1.77;;;0.90;;
51981;SDS011;37998;53.416;6.730;2022-07-23T06:56:35;1.48;;;1.00;;
51981;SDS011;37998;53.416;6.730;2022-07-23T06:59:01;1.55;;;0.82;;
51981;SDS011;37998;53.416;6.730;2022-07-23T07:01:27;4.30;;;1.00;;
51981;SDS011;37998;53.416;6.730;2022-07-23T07:03:53;4.50;;;1.00;;
51981;SDS011;37998;53.416;6.730;2022-07-23T07:06:18;2.58;;;0.95;;
51981;SDS011;37998;53.416;6.730;2022-07-23T07:08:44;0.85;;;0.82;;
51981;SDS011;37998;53.416;6.730;2022-07-23T07:11:10;2.90;;;1.10;;
51981;SDS011;37998;53.416;6.730;2022-07-23T07:13:36;2.10;;;1.00;;
51981;SDS011;37998;53.416;6.730;2022-07-23T07:16:02;2.25;;;1.00;;
51981;SDS011;37998;53.416;6.730;2022-07-23T07:18:28;1.65;;;1.00;;
51981;SDS011;37998;53.416;6.730;2022-07-23T07:20:54;2.17;;;1.38;;
51981;SDS011;37998;53.416;6.730;2022-07-23T07:23:20;2.47;;;1.00;;
51981;SDS011;37998;53.416;6.730;2022-07-23T07:25:45;2.22;;;1.00;;
51981;SDS011;37998;53.416;6.730;2022-07-23T07:28:11;1.10;;;0.98;;
51981;SDS011;37998;53.416;6.730;2022-07-23T07:30:37;2.35;;;0.93;;
51981;SDS011;37998;53.416;6.730;2022-07-23T07:33:03;1.77;;;0.93;;
51981;SDS011;37998;53.416;6.730;2022-07-23T07:35:29;3.25;;;0.77;;
51981;SDS011;37998;53.416;6.730;2022-07-23T07:37:56;1.58;;;0.80;;
51981;SDS011;37998;53.416;6.730;2022-07-23T07:40:21;1.27;;;1.00;;
51981;SDS011;37998;53.416;6.730;2022-07-23T07:42:48;2.13;;;0.95;;
51981;SDS011;37998;53.416;6.730;2022-07-23T07:45:15;3.55;;;1.10;;
51981;SDS011;37998;53.416;6.730;2022-07-23T07:47:41;1.48;;;0.80;;
51981;SDS011;37998;53.416;6.730;2022-07-23T07:50:06;3.05;;;1.02;;
51981;SDS011;37998;53.416;6.730;2022-07-23T07:52:33;2.38;;;1.13;;
51981;SDS011;37998;53.416;6.730;2022-07-23T07:55:01;4.43;;;0.90;;
51981;SDS011;37998;53.416;6.730;2022-07-23T07:57:31;1.60;;;0.90;;
51981;SDS011;37998;53.416;6.730;2022-07-23T07:59:57;3.10;;;1.20;;
51981;SDS011;37998;53.416;6.730;2022-07-23T08:02:23;2.88;;;0.70;;
51981;SDS011;37998;53.416;6.730;2022-07-23T08:04:49;5.30;;;1.05;;
51981;SDS011;37998;53.416;6.730;2022-07-23T08:07:14;3.20;;;0.95;;
51981;SDS011;37998;53.416;6.730;2022-07-23T08:09:40;1.50;;;0.80;;
51981;SDS011;37998;53.416;6.730;2022-07-23T08:12:06;1.08;;;0.80;;
51981;SDS011;37998;53.416;6.730;2022-07-23T08:14:32;1.10;;;0.75;;
51981;SDS011;37998;53.416;6.730;2022-07-23T08:16:58;0.77;;;0.68;;
51981;SDS011;37998;53.416;6.730;2022-07-23T08:19:24;3.17;;;1.00;;
51981;SDS011;37998;53.416;6.730;2022-07-23T08:21:50;3.05;;;0.95;;
51981;SDS011;37998;53.416;6.730;2022-07-23T08:24:16;4.13;;;1.00;;
51981;SDS011;37998;53.416;6.730;2022-07-23T08:26:41;2.40;;;0.77;;
51981;SDS011;37998;53.416;6.730;2022-07-23T08:29:07;1.05;;;0.88;;
51981;SDS011;37998;53.416;6.730;2022-07-23T08:31:32;1.63;;;0.90;;
51981;SDS011;37998;53.416;6.730;2022-07-23T08:34:01;1.13;;;0.80;;
51981;SDS011;37998;53.416;6.730;2022-07-23T08:36:27;4.05;;;0.70;;
51981;SDS011;37998;53.416;6.730;2022-07-23T08:38:57;4.35;;;1.10;;
51981;SDS011;37998;53.416;6.730;2022-07-23T08:41:28;2.95;;;0.85;;
51981;SDS011;37998;53.416;6.730;2022-07-23T08:43:54;1.83;;;0.82;;
51981;SDS011;37998;53.416;6.730;2022-07-23T08:46:21;3.10;;;0.90;;
51981;SDS011;37998;53.416;6.730;2022-07-23T08:48:48;0.60;;;0.60;;
51981;SDS011;37998;53.416;6.730;2022-07-23T08:51:15;1.10;;;0.80;;
51981;SDS011;37998;53.416;6.730;2022-07-23T08:53:41;2.65;;;0.80;;
51981;SDS011;37998;53.416;6.730;2022-07-23T08:56:07;1.80;;;0.70;;
51981;SDS011;37998;53.416;6.730;2022-07-23T08:58:34;0.80;;;0.75;;
51981;SDS011;37998;53.416;6.730;2022-07-23T09:01:00;1.98;;;0.80;;
51981;SDS011;37998;53.416;6.730;2022-07-23T09:03:30;1.60;;;0.82;;
51981;SDS011;37998;53.416;6.730;2022-07-23T09:05:59;1.13;;;0.75;;
51981;SDS011;37998;53.416;6.730;2022-07-23T09:08:36;1.83;;;0.82;;
51981;SDS011;37998;53.416;6.730;2022-07-23T09:11:04;3.25;;;0.80;;
51981;SDS011;37998;53.416;6.730;2022-07-23T09:16:00;3.42;;;0.80;;
51981;SDS011;37998;53.416;6.730;2022-07-23T09:23:46;2.42;;;0.85;;
51981;SDS011;37998;53.416;6.730;2022-07-23T09:26:33;1.95;;;0.90;;
51981;SDS011;37998;53.416;6.730;2022-07-23T09:29:04;1.92;;;0.80;;
51981;SDS011;37998;53.416;6.730;2022-07-23T09:34:40;1.92;;;0.90;;
51981;SDS011;37998;53.416;6.730;2022-07-23T09:37:09;2.85;;;0.95;;
51981;SDS011;37998;53.416;6.730;2022-07-23T09:39:43;1.70;;;0.90;;
51981;SDS011;37998;53.416;6.730;2022-07-23T09:42:18;3.40;;;1.05;;
51981;SDS011;37998;53.416;6.730;2022-07-23T09:44:53;2.90;;;1.00;;
51981;SDS011;37998;53.416;6.730;2022-07-23T09:47:21;2.65;;;0.85;;
51981;SDS011;37998;53.416;6.730;2022-07-23T09:50:01;5.10;;;0.90;;
51981;SDS011;37998;53.416;6.730;2022-07-23T09:52:35;1.23;;;0.82;;
51981;SDS011;37998;53.416;6.730;2022-07-23T09:55:07;1.05;;;0.80;;
51981;SDS011;37998;53.416;6.730;2022-07-23T09:57:34;2.17;;;0.80;;
51981;SDS011;37998;53.416;6.730;2022-07-23T10:00:00;1.88;;;0.90;;
51981;SDS011;37998;53.416;6.730;2022-07-23T10:02:28;1.08;;;0.80;;
51981;SDS011;37998;53.416;6.730;2022-07-23T10:04:57;2.47;;;0.60;;
51981;SDS011;37998;53.416;6.730;2022-07-23T10:07:24;1.35;;;1.02;;
51981;SDS011;37998;53.416;6.730;2022-07-23T10:09:52;2.72;;;0.80;;
51981;SDS011;37998;53.416;6.730;2022-07-23T10:12:18;1.80;;;1.00;;
51981;SDS011;37998;53.416;6.730;2022-07-23T10:14:47;1.55;;;0.70;;
51981;SDS011;37998;53.416;6.730;2022-07-23T10:17:13;2.17;;;0.77;;
51981;SDS011;37998;53.416;6.730;2022-07-23T10:19:39;1.35;;;0.80;;
51981;SDS011;37998;53.416;6.730;2022-07-23T10:22:09;1.13;;;0.60;;
51981;SDS011;37998;53.416;6.730;2022-07-23T10:30:30;2.13;;;0.85;;
51981;SDS011;37998;53.416;6.730;2022-07-23T10:35:59;1.30;;;0.95;;
51981;SDS011;37998;53.416;6.730;2022-07-23T10:41:08;2.55;;;0.73;;
51981;SDS011;37998;53.416;6.730;2022-07-23T10:43:33;2.65;;;0.80;;
51981;SDS011;37998;53.416;6.730;2022-07-23T10:54:38;2.35;;;1.00;;
51981;SDS011;37998;53.416;6.730;2022-07-23T10:57:08;2.47;;;0.80;;
51981;SDS011;37998;53.416;6.730;2022-07-23T11:02:26;2.30;;;1.20;;
51981;SDS011;37998;53.416;6.730;2022-07-23T11:04:56;3.83;;;1.10;;
51981;SDS011;37998;53.416;6.730;2022-07-23T11:07:25;2.33;;;0.88;;
51981;SDS011;37998;53.416;6.730;2022-07-23T11:09:50;2.65;;;1.00;;
51981;SDS011;37998;53.416;6.730;2022-07-23T11:17:27;6.13;;;1.38;;
51981;SDS011;37998;53.416;6.730;2022-07-23T11:23:17;5.70;;;1.42;;
51981;SDS011;37998;53.416;6.730;2022-07-23T11:27:50;2.42;;;1.25;;
51981;SDS011;37998;53.416;6.730;2022-07-23T11:32:51;4.93;;;1.15;;
51981;SDS011;37998;53.416;6.730;2022-07-23T11:35:18;2.58;;;0.90;;
51981;SDS011;37998;53.416;6.730;2022-07-23T11:37:49;2.67;;;1.10;;
51981;SDS011;37998;53.416;6.730;2022-07-23T11:40:19;2.65;;;0.90;;
51981;SDS011;37998;53.416;6.730;2022-07-23T11:45:18;1.38;;;1.00;;
51981;SDS011;37998;53.416;6.730;2022-07-23T11:47:44;3.45;;;1.10;;
51981;SDS011;37998;53.416;6.730;2022-07-23T11:50:10;1.67;;;0.90;;
51981;SDS011;37998;53.416;6.730;2022-07-23T11:52:35;1.67;;;1.00;;
51981;SDS011;37998;53.416;6.730;2022-07-23T11:55:03;1.65;;;1.00;;
51981;SDS011;37998;53.416;6.730;2022-07-23T11:57:34;3.75;;;0.90;;
51981;SDS011;37998;53.416;6.730;2022-07-23T12:00:04;2.53;;;1.00;;
51981;SDS011;37998;53.416;6.730;2022-07-23T12:02:52;1.83;;;0.88;;
51981;SDS011;37998;53.416;6.730;2022-07-23T12:05:21;3.75;;;1.13;;
51981;SDS011;37998;53.416;6.730;2022-07-23T12:07:49;2.95;;;1.00;;
51981;SDS011;37998;53.416;6.730;2022-07-23T12:12:46;1.63;;;1.17;;
51981;SDS011;37998;53.416;6.730;2022-07-23T12:15:21;2.42;;;1.05;;
51981;SDS011;37998;53.416;6.730;2022-07-23T12:18:08;1.83;;;0.90;;
51981;SDS011;37998;53.416;6.730;2022-07-23T12:20:36;1.65;;;0.98;;
51981;SDS011;37998;53.416;6.730;2022-07-23T12:23:05;2.47;;;1.02;;
51981;SDS011;37998;53.416;6.730;2022-07-23T12:25:33;4.18;;;1.00;;
51981;SDS011;37998;53.416;6.730;2022-07-23T12:28:05;5.07;;;1.08;;
51981;SDS011;37998;53.416;6.730;2022-07-23T12:30:39;2.08;;;1.02;;
51981;SDS011;37998;53.416;6.730;2022-07-23T12:33:29;2.90;;;1.50;;
51981;SDS011;37998;53.416;6.730;2022-07-23T12:35:58;3.75;;;0.80;;
51981;SDS011;37998;53.416;6.730;2022-07-23T12:38:25;2.92;;;0.98;;
51981;SDS011;37998;53.416;6.730;2022-07-23T12:40:59;3.72;;;1.05;;
51981;SDS011;37998;53.416;6.730;2022-07-23T12:48:29;2.40;;;1.35;;
51981;SDS011;37998;53.416;6.730;2022-07-23T12:51:00;2.05;;;0.88;;
51981;SDS011;37998;53.416;6.730;2022-07-23T12:53:31;4.00;;;1.00;;
51981;SDS011;37998;53.416;6.730;2022-07-23T12:56:03;1.95;;;1.20;;
51981;SDS011;37998;53.416;6.730;2022-07-23T12:58:49;1.95;;;1.15;;
51981;SDS011;37998;53.416;6.730;2022-07-23T13:06:24;0.90;;;0.90;;
51981;SDS011;37998;53.416;6.730;2022-07-23T13:08:50;1.55;;;1.00;;
51981;SDS011;37998;53.416;6.730;2022-07-23T13:11:16;1.10;;;1.00;;
51981;SDS011;37998;53.416;6.730;2022-07-23T13:13:42;2.25;;;1.10;;
51981;SDS011;37998;53.416;6.730;2022-07-23T13:16:07;3.60;;;1.10;;
51981;SDS011;37998;53.416;6.730;2022-07-23T13:18:33;6.07;;;1.02;;
51981;SDS011;37998;53.416;6.730;2022-07-23T13:20:59;4.05;;;0.93;;
51981;SDS011;37998;53.416;6.730;2022-07-23T13:23:25;4.20;;;0.90;;
51981;SDS011;37998;53.416;6.730;2022-07-23T13:25:51;1.95;;;1.10;;
51981;SDS011;37998;53.416;6.730;2022-07-23T13:28:18;1.45;;;1.00;;
51981;SDS011;37998;53.416;6.730;2022-07-23T13:30:44;1.38;;;0.88;;
51981;SDS011;37998;53.416;6.730;2022-07-23T13:33:11;3.00;;;1.45;;
51981;SDS011;37998;53.416;6.730;2022-07-23T13:35:37;3.05;;;1.80;;
51981;SDS011;37998;53.416;6.730;2022-07-23T13:38:04;1.23;;;0.88;;
51981;SDS011;37998;53.416;6.730;2022-07-23T13:40:33;1.27;;;0.90;;
51981;SDS011;37998;53.416;6.730;2022-07-23T13:43:04;3.80;;;0.82;;
51981;SDS011;37998;53.416;6.730;2022-07-23T13:45:33;1.77;;;1.00;;
51981;SDS011;37998;53.416;6.730;2022-07-23T13:47:59;2.05;;;0.93;;
51981;SDS011;37998;53.416;6.730;2022-07-23T13:50:25;2.35;;;0.80;;
51981;SDS011;37998;53.416;6.730;2022-07-23T13:52:51;3.22;;;1.00;;
51981;SDS011;37998;53.416;6.730;2022-07-23T13:55:16;4.47;;;1.10;;
51981;SDS011;37998;53.416;6.730;2022-07-23T13:57:42;4.72;;;1.25;;
51981;SDS011;37998;53.416;6.730;2022-07-23T14:00:09;2.33;;;1.02;;
51981;SDS011;37998;53.416;6.730;2022-07-23T14:02:36;2.55;;;1.00;;
51981;SDS011;37998;53.416;6.730;2022-07-23T14:05:04;2.80;;;1.02;;
51981;SDS011;37998;53.416;6.730;2022-07-23T14:07:31;1.90;;;0.90;;
51981;SDS011;37998;53.416;6.730;2022-07-23T14:09:57;3.22;;;1.00;;
51981;SDS011;37998;53.416;6.730;2022-07-23T14:12:23;3.10;;;1.02;;
51981;SDS011;37998;53.416;6.730;2022-07-23T14:14:48;1.85;;;1.10;;
51981;SDS011;37998;53.416;6.730;2022-07-23T14:17:14;2.72;;;0.90;;
51981;SDS011;37998;53.416;6.730;2022-07-23T14:19:40;1.67;;;1.00;;
51981;SDS011;37998;53.416;6.730;2022-07-23T14:22:05;2.30;;;1.13;;
51981;SDS011;37998;53.416;6.730;2022-07-23T14:24:31;4.07;;;1.02;;
51981;SDS011;37998;53.416;6.730;2022-07-23T14:26:57;2.00;;;1.10;;
51981;SDS011;37998;53.416;6.730;2022-07-23T14:29:24;5.00;;;1.08;;
51981;SDS011;37998;53.416;6.730;2022-07-23T14:31:49;2.97;;;1.00;;
51981;SDS011;37998;53.416;6.730;2022-07-23T14:34:15;2.28;;;0.90;;
51981;SDS011;37998;53.416;6.730;2022-07-23T14:36:41;2.90;;;1.40;;
51981;SDS011;37998;53.416;6.730;2022-07-23T14:39:16;3.83;;;0.90;;
51981;SDS011;37998;53.416;6.730;2022-07-23T14:41:41;2.38;;;1.15;;
51981;SDS011;37998;53.416;6.730;2022-07-23T14:44:07;4.28;;;1.13;;
51981;SDS011;37998;53.416;6.730;2022-07-23T14:46:33;0.93;;;0.93;;
51981;SDS011;37998;53.416;6.730;2022-07-23T14:48:59;2.15;;;1.08;;
51981;SDS011;37998;53.416;6.730;2022-07-23T14:51:25;4.78;;;1.42;;
51981;SDS011;37998;53.416;6.730;2022-07-23T14:53:50;5.18;;;1.40;;
51981;SDS011;37998;53.416;6.730;2022-07-23T14:56:16;7.05;;;1.33;;
51981;SDS011;37998;53.416;6.730;2022-07-23T14:58:42;3.92;;;1.30;;
51981;SDS011;37998;53.416;6.730;2022-07-23T15:01:08;3.42;;;1.02;;
51981;SDS011;37998;53.416;6.730;2022-07-23T15:03:33;3.22;;;1.40;;
51981;SDS011;37998;53.416;6.730;2022-07-23T15:05:59;1.90;;;1.13;;
51981;SDS011;37998;53.416;6.730;2022-07-23T15:08:25;1.27;;;1.00;;
51981;SDS011;37998;53.416;6.730;2022-07-23T15:10:50;1.95;;;0.95;;
51981;SDS011;37998;53.416;6.730;2022-07-23T15:13:16;1.48;;;1.08;;
51981;SDS011;37998;53.416;6.730;2022-07-23T15:15:42;2.40;;;1.02;;
51981;SDS011;37998;53.416;6.730;2022-07-23T15:18:08;1.60;;;1.00;;
51981;SDS011;37998;53.416;6.730;2022-07-23T15:20:34;3.42;;;1.10;;
51981;SDS011;37998;53.416;6.730;2022-07-23T15:23:00;2.47;;;1.10;;
51981;SDS011;37998;53.416;6.730;2022-07-23T15:25:25;3.45;;;1.40;;
51981;SDS011;37998;53.416;6.730;2022-07-23T15:27:51;5.03;;;1.10;;
51981;SDS011;37998;53.416;6.730;2022-07-23T15:30:17;4.28;;;1.30;;
51981;SDS011;37998;53.416;6.730;2022-07-23T15:32:42;2.67;;;1.20;;
51981;SDS011;37998;53.416;6.730;2022-07-23T15:35:08;1.77;;;0.95;;
51981;SDS011;37998;53.416;6.730;2022-07-23T15:37:34;2.47;;;0.73;;
51981;SDS011;37998;53.416;6.730;2022-07-23T15:40:00;2.70;;;1.20;;
51981;SDS011;37998;53.416;6.730;2022-07-23T15:42:29;2.35;;;1.10;;
51981;SDS011;37998;53.416;6.730;2022-07-23T15:44:54;4.15;;;1.20;;
51981;SDS011;37998;53.416;6.730;2022-07-23T15:47:20;4.13;;;1.20;;